sensor_id;sensor_type;location;lat;lon;timestamp;P1;durP1;ratioP1;P2;durP2;ratioP2
20093;SDS011;10206;48.012;10.030;2024-01-11T00:00:42;84.10;;;32.33;;
20093;SDS011;10206;48.012;10.030;2024-01-11T00:03:08;79.77;;;30.63;;
20093;SDS011;10206;48.012;10.030;2024-01-11T00:05:35;82.67;;;31.93;;
20093;SDS011;10206;48.012;10.030;2024-01-11T00:08:01;79.30;;;31.10;;
20093;SDS011;10206;48.012;10.030;2024-01-11T00:10:27;88.23;;;32.73;;
20093;SDS011;10206;48.012;10.030;2024-01-11T00:12:53;85.93;;;31.53;;
20093;SDS011;10206;48.012;10.030;2024-01-11T00:15:19;81.90;;;32.03;;
20093;SDS011;10206;48.012;10.030;2024-01-11T00:17:46;90.70;;;32.10;;
20093;SDS011;10206;48.012;10.030;2024-01-11T00:20:12;84.67;;;32.90;;
20093;SDS011;10206;48.012;10.030;2024-01-11T00:22:38;87.63;;;32.50;;
20093;SDS011;10206;48.012;10.030;2024-01-11T00:25:04;82.83;;;33.03;;
20093;SDS011;10206;48.012;10.030;2024-01-11T00:27:30;83.03;;;31.27;;
20093;SDS011;10206;48.012;10.030;2024-01-11T00:29:56;85.97;;;31.77;;
20093;SDS011;10206;48.012;10.030;2024-01-11T00:32:22;94.80;;;33.23;;
20093;SDS011;10206;48.012;10.030;2024-01-11T00:34:48;83.33;;;30.70;;
20093;SDS011;10206;48.012;10.030;2024-01-11T00:37:16;87.80;;;31.63;;
20093;SDS011;10206;48.012;10.030;2024-01-11T00:39:42;88.50;;;32.77;;
20093;SDS011;10206;48.012;10.030;2024-01-11T00:42:08;79.03;;;30.17;;
20093;SDS011;10206;48.012;10.030;2024-01-11T00:44:35;80.57;;;30.30;;
20093;SDS011;10206;48.012;10.030;2024-01-11T00:47:01;85.07;;;31.27;;
20093;SDS011;10206;48.012;10.030;2024-01-11T00:49:27;83.73;;;30.77;;
20093;SDS011;10206;48.012;10.030;2024-01-11T00:51:53;75.33;;;29.63;;
20093;SDS011;10206;48.012;10.030;2024-01-11T00:54:19;79.13;;;29.67;;
20093;SDS011;10206;48.012;10.030;2024-01-11T00:56:45;84.17;;;29.20;;
20093;SDS011;10206;48.012;10.030;2024-01-11T00:59:12;74.37;;;29.60;;
20093;SDS011;10206;48.012;10.030;2024-01-11T01:01:38;72.90;;;28.70;;
20093;SDS011;10206;48.012;10.030;2024-01-11T01:04:04;72.30;;;28.80;;
20093;SDS011;10206;48.012;10.030;2024-01-11T01:06:30;71.40;;;25.73;;
20093;SDS011;10206;48.012;10.030;2024-01-11T01:08:56;72.93;;;26.60;;
20093;SDS011;10206;48.012;10.030;2024-01-11T01:11:22;68.13;;;25.90;;
20093;SDS011;10206;48.012;10.030;2024-01-11T01:13:48;80.43;;;28.30;;
20093;SDS011;10206;48.012;10.030;2024-01-11T01:16:14;68.37;;;26.00;;
20093;SDS011;10206;48.012;10.030;2024-01-11T01:18:42;73.37;;;26.60;;
20093;SDS011;10206;48.012;10.030;2024-01-11T01:21:09;66.43;;;26.07;;
20093;SDS011;10206;48.012;10.030;2024-01-11T01:23:35;67.67;;;25.57;;
20093;SDS011;10206;48.012;10.030;2024-01-11T01:26:01;68.83;;;26.67;;
20093;SDS011;10206;48.012;10.030;2024-01-11T01:28:27;68.97;;;25.17;;
20093;SDS011;10206;48.012;10.030;2024-01-11T01:30:53;64.97;;;24.97;;
20093;SDS011;10206;48.012;10.030;2024-01-11T01:33:19;64.13;;;25.77;;
20093;SDS011;10206;48.012;10.030;2024-01-11T01:35:45;69.90;;;26.33;;
20093;SDS011;10206;48.012;10.030;2024-01-11T01:38:12;68.00;;;24.97;;
20093;SDS011;10206;48.012;10.030;2024-01-11T01:40:38;59.70;;;21.23;;
20093;SDS011;10206;48.012;10.030;2024-01-11T01:43:07;54.93;;;21.20;;
20093;SDS011;10206;48.012;10.030;2024-01-11T01:45:35;54.73;;;21.63;;
20093;SDS011;10206;48.012;10.030;2024-01-11T01:48:01;51.30;;;21.23;;
20093;SDS011;10206;48.012;10.030;2024-01-11T01:50:28;66.00;;;20.80;;
20093;SDS011;10206;48.012;10.030;2024-01-11T01:52:55;69.90;;;21.43;;
20093;SDS011;10206;48.012;10.030;2024-01-11T01:55:22;51.53;;;21.50;;
20093;SDS011;10206;48.012;10.030;2024-01-11T01:57:48;60.50;;;22.13;;
20093;SDS011;10206;48.012;10.030;2024-01-11T02:00:16;61.30;;;21.23;;
20093;SDS011;10206;48.012;10.030;2024-01-11T02:02:43;71.53;;;21.87;;
20093;SDS011;10206;48.012;10.030;2024-01-11T02:05:11;74.60;;;22.20;;
20093;SDS011;10206;48.012;10.030;2024-01-11T02:07:39;59.97;;;20.33;;
20093;SDS011;10206;48.012;10.030;2024-01-11T02:10:06;54.37;;;21.17;;
20093;SDS011;10206;48.012;10.030;2024-01-11T02:12:36;63.90;;;22.37;;
20093;SDS011;10206;48.012;10.030;2024-01-11T02:15:02;66.40;;;21.33;;
20093;SDS011;10206;48.012;10.030;2024-01-11T02:17:30;62.87;;;21.13;;
20093;SDS011;10206;48.012;10.030;2024-01-11T02:19:56;64.97;;;21.73;;
20093;SDS011;10206;48.012;10.030;2024-01-11T02:22:29;67.20;;;20.83;;
20093;SDS011;10206;48.012;10.030;2024-01-11T02:25:03;58.53;;;22.37;;
20093;SDS011;10206;48.012;10.030;2024-01-11T02:27:29;65.97;;;20.17;;
20093;SDS011;10206;48.012;10.030;2024-01-11T02:29:55;61.53;;;20.97;;
20093;SDS011;10206;48.012;10.030;2024-01-11T02:32:21;65.67;;;22.33;;
20093;SDS011;10206;48.012;10.030;2024-01-11T02:34:47;67.80;;;22.57;;
20093;SDS011;10206;48.012;10.030;2024-01-11T02:37:14;90.90;;;22.43;;
20093;SDS011;10206;48.012;10.030;2024-01-11T02:39:41;65.80;;;23.17;;
20093;SDS011;10206;48.012;10.030;2024-01-11T02:42:07;62.03;;;22.40;;
20093;SDS011;10206;48.012;10.030;2024-01-11T02:44:33;54.23;;;20.80;;
20093;SDS011;10206;48.012;10.030;2024-01-11T02:46:59;63.27;;;22.70;;
20093;SDS011;10206;48.012;10.030;2024-01-11T02:49:25;59.63;;;22.07;;
20093;SDS011;10206;48.012;10.030;2024-01-11T02:51:51;70.83;;;20.87;;
20093;SDS011;10206;48.012;10.030;2024-01-11T02:54:17;190.70;;;26.17;;
20093;SDS011;10206;48.012;10.030;2024-01-11T02:56:43;76.00;;;21.80;;
20093;SDS011;10206;48.012;10.030;2024-01-11T02:59:09;76.37;;;22.70;;
20093;SDS011;10206;48.012;10.030;2024-01-11T03:01:35;78.70;;;21.03;;
20093;SDS011;10206;48.012;10.030;2024-01-11T03:04:02;146.17;;;24.13;;
20093;SDS011;10206;48.012;10.030;2024-01-11T03:06:28;114.90;;;22.27;;
20093;SDS011;10206;48.012;10.030;2024-01-11T03:08:54;70.17;;;22.07;;
20093;SDS011;10206;48.012;10.030;2024-01-11T03:11:20;92.23;;;23.10;;
20093;SDS011;10206;48.012;10.030;2024-01-11T03:13:46;54.37;;;20.70;;
20093;SDS011;10206;48.012;10.030;2024-01-11T03:16:12;59.40;;;21.63;;
20093;SDS011;10206;48.012;10.030;2024-01-11T03:18:38;61.13;;;21.03;;
20093;SDS011;10206;48.012;10.030;2024-01-11T03:21:04;64.80;;;20.23;;
20093;SDS011;10206;48.012;10.030;2024-01-11T03:23:30;55.17;;;19.30;;
20093;SDS011;10206;48.012;10.030;2024-01-11T03:25:56;66.73;;;20.73;;
20093;SDS011;10206;48.012;10.030;2024-01-11T03:28:22;73.60;;;19.97;;
20093;SDS011;10206;48.012;10.030;2024-01-11T03:30:49;59.97;;;20.87;;
20093;SDS011;10206;48.012;10.030;2024-01-11T03:33:15;64.63;;;20.23;;
20093;SDS011;10206;48.012;10.030;2024-01-11T03:35:41;63.00;;;21.33;;
20093;SDS011;10206;48.012;10.030;2024-01-11T03:38:08;63.90;;;21.67;;
20093;SDS011;10206;48.012;10.030;2024-01-11T03:40:35;59.27;;;20.10;;
20093;SDS011;10206;48.012;10.030;2024-01-11T03:43:01;115.97;;;22.97;;
20093;SDS011;10206;48.012;10.030;2024-01-11T03:45:29;123.77;;;23.23;;
20093;SDS011;10206;48.012;10.030;2024-01-11T03:47:55;104.53;;;22.20;;
20093;SDS011;10206;48.012;10.030;2024-01-11T03:50:22;59.37;;;19.40;;
20093;SDS011;10206;48.012;10.030;2024-01-11T03:52:48;91.73;;;22.27;;
20093;SDS011;10206;48.012;10.030;2024-01-11T03:55:14;56.00;;;19.57;;
20093;SDS011;10206;48.012;10.030;2024-01-11T03:57:40;62.63;;;20.73;;
20093;SDS011;10206;48.012;10.030;2024-01-11T04:00:07;92.00;;;20.33;;
20093;SDS011;10206;48.012;10.030;2024-01-11T04:02:34;58.10;;;18.17;;
20093;SDS011;10206;48.012;10.030;2024-01-11T04:05:00;127.07;;;22.00;;
20093;SDS011;10206;48.012;10.030;2024-01-11T04:07:26;73.93;;;20.27;;
20093;SDS011;10206;48.012;10.030;2024-01-11T04:09:52;58.27;;;19.50;;
20093;SDS011;10206;48.012;10.030;2024-01-11T04:12:19;117.40;;;21.67;;
20093;SDS011;10206;48.012;10.030;2024-01-11T04:14:45;62.67;;;20.43;;
20093;SDS011;10206;48.012;10.030;2024-01-11T04:17:11;58.63;;;18.33;;
20093;SDS011;10206;48.012;10.030;2024-01-11T04:19:37;55.13;;;19.13;;
20093;SDS011;10206;48.012;10.030;2024-01-11T04:22:04;79.83;;;20.80;;
20093;SDS011;10206;48.012;10.030;2024-01-11T04:24:30;57.47;;;20.03;;
20093;SDS011;10206;48.012;10.030;2024-01-11T04:26:56;88.57;;;21.33;;
20093;SDS011;10206;48.012;10.030;2024-01-11T04:29:22;75.80;;;20.67;;
20093;SDS011;10206;48.012;10.030;2024-01-11T04:31:49;90.07;;;20.97;;
20093;SDS011;10206;48.012;10.030;2024-01-11T04:34:15;57.17;;;18.73;;
20093;SDS011;10206;48.012;10.030;2024-01-11T04:36:41;73.63;;;21.70;;
20093;SDS011;10206;48.012;10.030;2024-01-11T04:39:07;107.57;;;21.37;;
20093;SDS011;10206;48.012;10.030;2024-01-11T04:41:34;104.97;;;20.87;;
20093;SDS011;10206;48.012;10.030;2024-01-11T04:44:03;60.10;;;18.87;;
20093;SDS011;10206;48.012;10.030;2024-01-11T04:46:30;69.30;;;20.43;;
20093;SDS011;10206;48.012;10.030;2024-01-11T04:48:56;60.93;;;19.47;;
20093;SDS011;10206;48.012;10.030;2024-01-11T04:51:22;77.67;;;20.33;;
20093;SDS011;10206;48.012;10.030;2024-01-11T04:53:48;77.10;;;18.97;;
20093;SDS011;10206;48.012;10.030;2024-01-11T04:56:15;72.10;;;20.73;;
20093;SDS011;10206;48.012;10.030;2024-01-11T04:58:42;64.83;;;20.63;;
20093;SDS011;10206;48.012;10.030;2024-01-11T05:01:15;56.77;;;19.67;;
20093;SDS011;10206;48.012;10.030;2024-01-11T05:03:42;65.40;;;21.10;;
20093;SDS011;10206;48.012;10.030;2024-01-11T05:06:16;58.80;;;21.00;;
20093;SDS011;10206;48.012;10.030;2024-01-11T05:08:43;56.97;;;18.83;;
20093;SDS011;10206;48.012;10.030;2024-01-11T05:11:17;56.23;;;19.57;;
20093;SDS011;10206;48.012;10.030;2024-01-11T05:13:44;79.20;;;28.83;;
20093;SDS011;10206;48.012;10.030;2024-01-11T05:18:51;64.63;;;21.60;;
20093;SDS011;10206;48.012;10.030;2024-01-11T05:21:19;118.27;;;24.43;;
20093;SDS011;10206;48.012;10.030;2024-01-11T05:23:46;72.40;;;21.27;;
20093;SDS011;10206;48.012;10.030;2024-01-11T05:26:14;155.77;;;22.93;;
20093;SDS011;10206;48.012;10.030;2024-01-11T05:28:41;66.90;;;21.33;;
20093;SDS011;10206;48.012;10.030;2024-01-11T05:31:08;77.57;;;19.70;;
20093;SDS011;10206;48.012;10.030;2024-01-11T05:33:40;74.27;;;20.93;;
20093;SDS011;10206;48.012;10.030;2024-01-11T05:36:06;58.60;;;19.07;;
20093;SDS011;10206;48.012;10.030;2024-01-11T05:38:33;82.00;;;19.60;;
20093;SDS011;10206;48.012;10.030;2024-01-11T05:40:59;82.83;;;18.93;;
20093;SDS011;10206;48.012;10.030;2024-01-11T05:43:26;84.73;;;19.90;;
20093;SDS011;10206;48.012;10.030;2024-01-11T05:45:52;98.27;;;21.23;;
20093;SDS011;10206;48.012;10.030;2024-01-11T05:48:18;85.40;;;19.27;;
20093;SDS011;10206;48.012;10.030;2024-01-11T05:50:44;70.27;;;20.07;;
20093;SDS011;10206;48.012;10.030;2024-01-11T05:53:11;95.70;;;20.20;;
20093;SDS011;10206;48.012;10.030;2024-01-11T05:55:37;59.53;;;17.80;;
20093;SDS011;10206;48.012;10.030;2024-01-11T05:58:07;93.80;;;19.67;;
20093;SDS011;10206;48.012;10.030;2024-01-11T06:00:33;48.27;;;17.03;;
20093;SDS011;10206;48.012;10.030;2024-01-11T06:02:59;54.47;;;18.33;;
20093;SDS011;10206;48.012;10.030;2024-01-11T06:05:25;109.77;;;19.10;;
20093;SDS011;10206;48.012;10.030;2024-01-11T06:07:51;63.27;;;18.93;;
20093;SDS011;10206;48.012;10.030;2024-01-11T06:10:18;60.80;;;19.03;;
20093;SDS011;10206;48.012;10.030;2024-01-11T06:12:44;58.70;;;17.90;;
20093;SDS011;10206;48.012;10.030;2024-01-11T06:15:10;61.97;;;19.20;;
20093;SDS011;10206;48.012;10.030;2024-01-11T06:17:36;57.00;;;18.43;;
20093;SDS011;10206;48.012;10.030;2024-01-11T06:20:03;56.40;;;19.87;;
20093;SDS011;10206;48.012;10.030;2024-01-11T06:22:30;75.57;;;20.30;;
20093;SDS011;10206;48.012;10.030;2024-01-11T06:24:56;79.53;;;20.97;;
20093;SDS011;10206;48.012;10.030;2024-01-11T06:27:24;71.73;;;18.37;;
20093;SDS011;10206;48.012;10.030;2024-01-11T06:29:50;70.97;;;19.63;;
20093;SDS011;10206;48.012;10.030;2024-01-11T06:32:16;63.90;;;20.80;;
20093;SDS011;10206;48.012;10.030;2024-01-11T06:34:42;64.63;;;21.63;;
20093;SDS011;10206;48.012;10.030;2024-01-11T06:37:11;70.20;;;22.73;;
20093;SDS011;10206;48.012;10.030;2024-01-11T06:39:37;67.50;;;20.93;;
20093;SDS011;10206;48.012;10.030;2024-01-11T06:42:03;47.37;;;17.17;;
20093;SDS011;10206;48.012;10.030;2024-01-11T06:44:30;52.93;;;18.87;;
20093;SDS011;10206;48.012;10.030;2024-01-11T06:46:56;56.13;;;20.63;;
20093;SDS011;10206;48.012;10.030;2024-01-11T06:49:22;59.80;;;18.93;;
20093;SDS011;10206;48.012;10.030;2024-01-11T06:51:48;57.07;;;19.73;;
20093;SDS011;10206;48.012;10.030;2024-01-11T06:54:14;52.73;;;18.37;;
20093;SDS011;10206;48.012;10.030;2024-01-11T06:56:40;52.17;;;17.83;;
20093;SDS011;10206;48.012;10.030;2024-01-11T06:59:06;45.50;;;17.20;;
20093;SDS011;10206;48.012;10.030;2024-01-11T07:01:32;45.00;;;16.90;;
20093;SDS011;10206;48.012;10.030;2024-01-11T07:03:58;56.10;;;22.43;;
20093;SDS011;10206;48.012;10.030;2024-01-11T07:06:25;45.00;;;16.73;;
20093;SDS011;10206;48.012;10.030;2024-01-11T07:08:51;48.30;;;16.57;;
20093;SDS011;10206;48.012;10.030;2024-01-11T07:11:17;50.43;;;16.87;;
20093;SDS011;10206;48.012;10.030;2024-01-11T07:13:43;40.93;;;14.23;;
20093;SDS011;10206;48.012;10.030;2024-01-11T07:16:09;41.67;;;15.80;;
20093;SDS011;10206;48.012;10.030;2024-01-11T07:18:35;47.10;;;16.07;;
20093;SDS011;10206;48.012;10.030;2024-01-11T07:21:01;47.47;;;17.77;;
20093;SDS011;10206;48.012;10.030;2024-01-11T07:23:28;52.60;;;17.20;;
20093;SDS011;10206;48.012;10.030;2024-01-11T07:25:54;50.03;;;15.40;;
20093;SDS011;10206;48.012;10.030;2024-01-11T07:28:20;47.67;;;15.63;;
20093;SDS011;10206;48.012;10.030;2024-01-11T07:30:50;46.90;;;16.37;;
20093;SDS011;10206;48.012;10.030;2024-01-11T07:33:18;43.13;;;15.63;;
20093;SDS011;10206;48.012;10.030;2024-01-11T07:35:45;48.60;;;16.70;;
20093;SDS011;10206;48.012;10.030;2024-01-11T07:38:11;42.13;;;16.97;;
20093;SDS011;10206;48.012;10.030;2024-01-11T07:40:37;47.03;;;16.50;;
20093;SDS011;10206;48.012;10.030;2024-01-11T07:43:04;42.33;;;15.90;;
20093;SDS011;10206;48.012;10.030;2024-01-11T07:45:30;47.70;;;16.33;;
20093;SDS011;10206;48.012;10.030;2024-01-11T07:47:56;39.50;;;16.03;;
20093;SDS011;10206;48.012;10.030;2024-01-11T07:50:22;49.80;;;17.00;;
20093;SDS011;10206;48.012;10.030;2024-01-11T07:52:48;42.60;;;15.63;;
20093;SDS011;10206;48.012;10.030;2024-01-11T07:55:14;44.37;;;17.07;;
20093;SDS011;10206;48.012;10.030;2024-01-11T07:57:41;45.47;;;17.30;;
20093;SDS011;10206;48.012;10.030;2024-01-11T08:00:08;42.57;;;16.13;;
20093;SDS011;10206;48.012;10.030;2024-01-11T08:02:34;47.03;;;16.70;;
20093;SDS011;10206;48.012;10.030;2024-01-11T08:05:00;47.77;;;16.90;;
20093;SDS011;10206;48.012;10.030;2024-01-11T08:07:27;56.30;;;18.47;;
20093;SDS011;10206;48.012;10.030;2024-01-11T08:09:54;51.17;;;19.60;;
20093;SDS011;10206;48.012;10.030;2024-01-11T08:12:20;66.73;;;24.10;;
20093;SDS011;10206;48.012;10.030;2024-01-11T08:14:46;52.77;;;18.73;;
20093;SDS011;10206;48.012;10.030;2024-01-11T08:17:13;50.37;;;18.60;;
20093;SDS011;10206;48.012;10.030;2024-01-11T08:19:40;53.30;;;18.70;;
20093;SDS011;10206;48.012;10.030;2024-01-11T08:22:07;48.97;;;18.57;;
20093;SDS011;10206;48.012;10.030;2024-01-11T08:24:34;44.93;;;17.07;;
20093;SDS011;10206;48.012;10.030;2024-01-11T08:27:00;38.53;;;14.20;;
20093;SDS011;10206;48.012;10.030;2024-01-11T08:29:26;48.60;;;16.83;;
20093;SDS011;10206;48.012;10.030;2024-01-11T08:31:53;45.07;;;15.57;;
20093;SDS011;10206;48.012;10.030;2024-01-11T08:34:22;56.93;;;18.60;;
20093;SDS011;10206;48.012;10.030;2024-01-11T08:36:51;51.80;;;16.93;;
20093;SDS011;10206;48.012;10.030;2024-01-11T08:39:17;50.30;;;17.33;;
20093;SDS011;10206;48.012;10.030;2024-01-11T08:41:44;49.60;;;16.70;;
20093;SDS011;10206;48.012;10.030;2024-01-11T08:44:10;53.13;;;18.43;;
20093;SDS011;10206;48.012;10.030;2024-01-11T08:46:36;53.97;;;17.77;;
20093;SDS011;10206;48.012;10.030;2024-01-11T08:49:03;50.00;;;17.70;;
20093;SDS011;10206;48.012;10.030;2024-01-11T08:51:29;51.17;;;17.53;;
20093;SDS011;10206;48.012;10.030;2024-01-11T08:53:57;54.93;;;17.47;;
20093;SDS011;10206;48.012;10.030;2024-01-11T08:56:23;53.43;;;18.77;;
20093;SDS011;10206;48.012;10.030;2024-01-11T08:58:49;51.30;;;17.83;;
20093;SDS011;10206;48.012;10.030;2024-01-11T09:01:15;46.30;;;17.77;;
20093;SDS011;10206;48.012;10.030;2024-01-11T09:03:43;52.77;;;19.00;;
20093;SDS011;10206;48.012;10.030;2024-01-11T09:06:09;50.97;;;17.73;;
20093;SDS011;10206;48.012;10.030;2024-01-11T09:08:38;51.93;;;18.50;;
20093;SDS011;10206;48.012;10.030;2024-01-11T09:11:07;52.53;;;19.67;;
20093;SDS011;10206;48.012;10.030;2024-01-11T09:13:35;54.53;;;19.20;;
20093;SDS011;10206;48.012;10.030;2024-01-11T09:16:01;52.43;;;18.97;;
20093;SDS011;10206;48.012;10.030;2024-01-11T09:18:28;51.50;;;18.23;;
20093;SDS011;10206;48.012;10.030;2024-01-11T09:20:54;61.30;;;22.17;;
20093;SDS011;10206;48.012;10.030;2024-01-11T09:23:21;59.53;;;21.23;;
20093;SDS011;10206;48.012;10.030;2024-01-11T09:25:47;59.10;;;20.17;;
20093;SDS011;10206;48.012;10.030;2024-01-11T09:28:13;72.93;;;26.93;;
20093;SDS011;10206;48.012;10.030;2024-01-11T09:30:39;77.93;;;27.57;;
20093;SDS011;10206;48.012;10.030;2024-01-11T09:33:05;65.00;;;23.07;;
20093;SDS011;10206;48.012;10.030;2024-01-11T09:35:31;69.03;;;22.97;;
20093;SDS011;10206;48.012;10.030;2024-01-11T09:37:58;58.93;;;21.23;;
20093;SDS011;10206;48.012;10.030;2024-01-11T09:40:24;55.93;;;19.70;;
20093;SDS011;10206;48.012;10.030;2024-01-11T09:42:50;62.33;;;20.63;;
20093;SDS011;10206;48.012;10.030;2024-01-11T09:45:17;55.07;;;19.97;;
20093;SDS011;10206;48.012;10.030;2024-01-11T09:47:44;66.27;;;22.53;;
20093;SDS011;10206;48.012;10.030;2024-01-11T09:50:11;56.43;;;20.43;;
20093;SDS011;10206;48.012;10.030;2024-01-11T09:52:43;67.93;;;20.10;;
20093;SDS011;10206;48.012;10.030;2024-01-11T09:55:12;54.90;;;18.63;;
20093;SDS011;10206;48.012;10.030;2024-01-11T09:57:40;61.57;;;18.80;;
20093;SDS011;10206;48.012;10.030;2024-01-11T10:00:18;59.53;;;20.93;;
20093;SDS011;10206;48.012;10.030;2024-01-11T10:02:47;62.40;;;20.80;;
20093;SDS011;10206;48.012;10.030;2024-01-11T10:05:13;54.53;;;18.87;;
20093;SDS011;10206;48.012;10.030;2024-01-11T10:07:41;64.13;;;19.93;;
20093;SDS011;10206;48.012;10.030;2024-01-11T10:10:07;64.07;;;19.47;;
20093;SDS011;10206;48.012;10.030;2024-01-11T10:12:38;62.97;;;23.17;;
20093;SDS011;10206;48.012;10.030;2024-01-11T10:15:04;68.73;;;31.07;;
20093;SDS011;10206;48.012;10.030;2024-01-11T10:17:34;64.40;;;21.40;;
20093;SDS011;10206;48.012;10.030;2024-01-11T10:20:01;64.77;;;21.43;;
20093;SDS011;10206;48.012;10.030;2024-01-11T10:22:28;62.30;;;20.90;;
20093;SDS011;10206;48.012;10.030;2024-01-11T10:25:13;63.37;;;20.90;;
20093;SDS011;10206;48.012;10.030;2024-01-11T10:27:40;60.20;;;22.37;;
20093;SDS011;10206;48.012;10.030;2024-01-11T10:30:14;61.23;;;21.60;;
20093;SDS011;10206;48.012;10.030;2024-01-11T10:32:41;57.13;;;20.30;;
20093;SDS011;10206;48.012;10.030;2024-01-11T10:35:11;60.20;;;21.57;;
20093;SDS011;10206;48.012;10.030;2024-01-11T10:37:37;60.60;;;21.30;;
20093;SDS011;10206;48.012;10.030;2024-01-11T10:40:05;54.20;;;18.97;;
20093;SDS011;10206;48.012;10.030;2024-01-11T10:42:36;58.90;;;20.63;;
20093;SDS011;10206;48.012;10.030;2024-01-11T10:45:18;71.50;;;26.43;;
20093;SDS011;10206;48.012;10.030;2024-01-11T10:50:24;54.93;;;20.50;;
20093;SDS011;10206;48.012;10.030;2024-01-11T10:53:04;62.93;;;22.10;;
20093;SDS011;10206;48.012;10.030;2024-01-11T10:56:10;55.90;;;19.20;;
20093;SDS011;10206;48.012;10.030;2024-01-11T10:58:37;53.90;;;19.30;;
20093;SDS011;10206;48.012;10.030;2024-01-11T11:01:06;51.10;;;19.47;;
20093;SDS011;10206;48.012;10.030;2024-01-11T11:03:34;56.47;;;21.57;;
20093;SDS011;10206;48.012;10.030;2024-01-11T11:06:01;51.63;;;18.73;;
20093;SDS011;10206;48.012;10.030;2024-01-11T11:08:29;42.37;;;17.87;;
20093;SDS011;10206;48.012;10.030;2024-01-11T11:10:56;46.87;;;17.37;;
20093;SDS011;10206;48.012;10.030;2024-01-11T11:13:23;48.43;;;18.90;;
20093;SDS011;10206;48.012;10.030;2024-01-11T11:15:50;53.10;;;21.23;;
20093;SDS011;10206;48.012;10.030;2024-01-11T11:18:18;48.87;;;16.97;;
20093;SDS011;10206;48.012;10.030;2024-01-11T11:20:45;43.23;;;17.10;;
20093;SDS011;10206;48.012;10.030;2024-01-11T11:23:13;52.50;;;20.20;;
20093;SDS011;10206;48.012;10.030;2024-01-11T11:25:42;56.07;;;21.60;;
20093;SDS011;10206;48.012;10.030;2024-01-11T11:28:12;50.87;;;19.57;;
20093;SDS011;10206;48.012;10.030;2024-01-11T11:30:40;49.20;;;18.90;;
20093;SDS011;10206;48.012;10.030;2024-01-11T11:33:17;49.20;;;17.20;;
20093;SDS011;10206;48.012;10.030;2024-01-11T11:35:45;60.77;;;22.53;;
20093;SDS011;10206;48.012;10.030;2024-01-11T11:38:18;54.33;;;19.30;;
20093;SDS011;10206;48.012;10.030;2024-01-11T11:40:46;49.27;;;18.33;;
20093;SDS011;10206;48.012;10.030;2024-01-11T11:43:15;49.67;;;19.83;;
20093;SDS011;10206;48.012;10.030;2024-01-11T11:45:49;49.60;;;19.13;;
20093;SDS011;10206;48.012;10.030;2024-01-11T11:51:16;50.63;;;19.13;;
20093;SDS011;10206;48.012;10.030;2024-01-11T11:53:45;49.67;;;16.83;;
20093;SDS011;10206;48.012;10.030;2024-01-11T11:56:13;52.80;;;19.97;;
20093;SDS011;10206;48.012;10.030;2024-01-11T11:58:42;51.97;;;18.00;;
20093;SDS011;10206;48.012;10.030;2024-01-11T12:01:10;51.53;;;19.13;;
20093;SDS011;10206;48.012;10.030;2024-01-11T12:03:37;52.90;;;19.17;;
20093;SDS011;10206;48.012;10.030;2024-01-11T12:06:06;51.63;;;18.50;;
20093;SDS011;10206;48.012;10.030;2024-01-11T12:08:35;54.03;;;19.93;;
20093;SDS011;10206;48.012;10.030;2024-01-11T12:11:02;54.50;;;19.90;;
20093;SDS011;10206;48.012;10.030;2024-01-11T12:13:28;57.07;;;20.53;;
20093;SDS011;10206;48.012;10.030;2024-01-11T12:15:58;50.50;;;19.87;;
20093;SDS011;10206;48.012;10.030;2024-01-11T12:18:24;56.63;;;20.37;;
20093;SDS011;10206;48.012;10.030;2024-01-11T12:20:50;57.43;;;19.43;;
20093;SDS011;10206;48.012;10.030;2024-01-11T12:23:19;61.87;;;21.63;;
20093;SDS011;10206;48.012;10.030;2024-01-11T12:25:45;61.27;;;21.03;;
20093;SDS011;10206;48.012;10.030;2024-01-11T12:28:12;61.97;;;21.17;;
20093;SDS011;10206;48.012;10.030;2024-01-11T12:30:38;67.10;;;22.07;;
20093;SDS011;10206;48.012;10.030;2024-01-11T12:33:04;65.97;;;20.83;;
20093;SDS011;10206;48.012;10.030;2024-01-11T12:35:31;71.33;;;24.90;;
20093;SDS011;10206;48.012;10.030;2024-01-11T12:40:34;63.47;;;22.33;;
20093;SDS011;10206;48.012;10.030;2024-01-11T12:43:04;73.80;;;27.87;;
20093;SDS011;10206;48.012;10.030;2024-01-11T12:45:34;67.83;;;26.00;;
20093;SDS011;10206;48.012;10.030;2024-01-11T12:48:00;62.90;;;23.03;;
20093;SDS011;10206;48.012;10.030;2024-01-11T12:50:28;68.00;;;23.77;;
20093;SDS011;10206;48.012;10.030;2024-01-11T12:55:45;71.50;;;25.07;;
20093;SDS011;10206;48.012;10.030;2024-01-11T12:58:12;77.23;;;26.53;;
20093;SDS011;10206;48.012;10.030;2024-01-11T13:00:44;77.97;;;25.80;;
20093;SDS011;10206;48.012;10.030;2024-01-11T13:03:10;82.97;;;27.63;;
20093;SDS011;10206;48.012;10.030;2024-01-11T13:05:36;89.70;;;33.80;;
20093;SDS011;10206;48.012;10.030;2024-01-11T13:08:02;80.83;;;26.80;;
20093;SDS011;10206;48.012;10.030;2024-01-11T13:10:35;78.43;;;29.07;;
20093;SDS011;10206;48.012;10.030;2024-01-11T13:13:02;76.50;;;27.43;;
20093;SDS011;10206;48.012;10.030;2024-01-11T13:15:30;74.47;;;25.43;;
20093;SDS011;10206;48.012;10.030;2024-01-11T13:17:57;77.03;;;26.60;;
20093;SDS011;10206;48.012;10.030;2024-01-11T13:20:24;74.77;;;26.30;;
20093;SDS011;10206;48.012;10.030;2024-01-11T13:22:53;78.13;;;27.13;;
20093;SDS011;10206;48.012;10.030;2024-01-11T13:25:39;77.57;;;26.77;;
20093;SDS011;10206;48.012;10.030;2024-01-11T13:28:06;81.53;;;28.07;;
20093;SDS011;10206;48.012;10.030;2024-01-11T13:30:33;82.00;;;27.10;;
20093;SDS011;10206;48.012;10.030;2024-01-11T13:33:00;79.40;;;27.43;;
20093;SDS011;10206;48.012;10.030;2024-01-11T13:35:27;67.53;;;25.13;;
20093;SDS011;10206;48.012;10.030;2024-01-11T13:37:53;69.07;;;24.60;;
20093;SDS011;10206;48.012;10.030;2024-01-11T13:40:19;68.43;;;27.10;;
20093;SDS011;10206;48.012;10.030;2024-01-11T13:42:45;75.23;;;27.70;;
20093;SDS011;10206;48.012;10.030;2024-01-11T13:45:11;57.23;;;22.83;;
20093;SDS011;10206;48.012;10.030;2024-01-11T13:47:37;65.87;;;24.13;;
20093;SDS011;10206;48.012;10.030;2024-01-11T13:50:04;69.97;;;23.33;;
20093;SDS011;10206;48.012;10.030;2024-01-11T13:52:30;69.70;;;23.50;;
20093;SDS011;10206;48.012;10.030;2024-01-11T13:54:57;70.83;;;25.13;;
20093;SDS011;10206;48.012;10.030;2024-01-11T13:57:23;68.37;;;23.83;;
20093;SDS011;10206;48.012;10.030;2024-01-11T13:59:49;70.03;;;25.33;;
20093;SDS011;10206;48.012;10.030;2024-01-11T14:02:15;81.83;;;27.57;;
20093;SDS011;10206;48.012;10.030;2024-01-11T14:04:41;76.33;;;27.60;;
20093;SDS011;10206;48.012;10.030;2024-01-11T14:07:08;77.20;;;28.07;;
20093;SDS011;10206;48.012;10.030;2024-01-11T14:09:34;71.90;;;25.23;;
20093;SDS011;10206;48.012;10.030;2024-01-11T14:12:00;69.67;;;24.90;;
20093;SDS011;10206;48.012;10.030;2024-01-11T14:14:26;69.57;;;23.97;;
20093;SDS011;10206;48.012;10.030;2024-01-11T14:16:52;71.73;;;25.27;;
20093;SDS011;10206;48.012;10.030;2024-01-11T14:19:18;72.27;;;24.43;;
20093;SDS011;10206;48.012;10.030;2024-01-11T14:21:44;70.43;;;24.67;;